sensor_id;sensor_type;location;lat;lon;timestamp;P1;durP1;ratioP1;P2;durP2;ratioP2
75698;SDS011;64313;51.018;13.742;2023-01-26T00:01:20;30.08;;;14.15;;
75698;SDS011;64313;51.018;13.742;2023-01-26T00:03:47;29.13;;;13.52;;
75698;SDS011;64313;51.018;13.742;2023-01-26T00:06:13;29.08;;;12.57;;
75698;SDS011;64313;51.018;13.742;2023-01-26T00:08:45;28.35;;;13.18;;
75698;SDS011;64313;51.018;13.742;2023-01-26T00:11:12;30.63;;;13.13;;
75698;SDS011;64313;51.018;13.742;2023-01-26T00:13:39;27.42;;;12.65;;
75698;SDS011;64313;51.018;13.742;2023-01-26T00:16:14;28.02;;;13.00;;
75698;SDS011;64313;51.018;13.742;2023-01-26T00:18:40;33.40;;;15.38;;
75698;SDS011;64313;51.018;13.742;2023-01-26T00:23:36;27.92;;;12.50;;
75698;SDS011;64313;51.018;13.742;2023-01-26T00:26:01;29.60;;;12.60;;
75698;SDS011;64313;51.018;13.742;2023-01-26T00:28:30;32.28;;;13.30;;
75698;SDS011;64313;51.018;13.742;2023-01-26T00:31:03;28.35;;;12.95;;
75698;SDS011;64313;51.018;13.742;2023-01-26T00:33:29;31.02;;;13.93;;
75698;SDS011;64313;51.018;13.742;2023-01-26T00:35:55;25.95;;;11.90;;
75698;SDS011;64313;51.018;13.742;2023-01-26T00:38:20;28.30;;;12.98;;
75698;SDS011;64313;51.018;13.742;2023-01-26T00:40:46;25.98;;;12.10;;
75698;SDS011;64313;51.018;13.742;2023-01-26T00:43:12;31.77;;;14.00;;
75698;SDS011;64313;51.018;13.742;2023-01-26T00:45:37;31.98;;;14.73;;
75698;SDS011;64313;51.018;13.742;2023-01-26T00:50:29;30.83;;;12.38;;
75698;SDS011;64313;51.018;13.742;2023-01-26T00:52:55;32.58;;;13.23;;
75698;SDS011;64313;51.018;13.742;2023-01-26T00:55:22;32.67;;;13.93;;
75698;SDS011;64313;51.018;13.742;2023-01-26T00:57:48;29.65;;;13.32;;
75698;SDS011;64313;51.018;13.742;2023-01-26T01:00:15;31.55;;;13.13;;
75698;SDS011;64313;51.018;13.742;2023-01-26T01:02:42;31.05;;;12.93;;
75698;SDS011;64313;51.018;13.742;2023-01-26T01:05:09;31.95;;;13.70;;
75698;SDS011;64313;51.018;13.742;2023-01-26T01:07:34;30.60;;;13.60;;
75698;SDS011;64313;51.018;13.742;2023-01-26T01:09:59;32.53;;;13.35;;
75698;SDS011;64313;51.018;13.742;2023-01-26T01:12:25;33.25;;;14.27;;
75698;SDS011;64313;51.018;13.742;2023-01-26T01:14:53;28.88;;;12.43;;
75698;SDS011;64313;51.018;13.742;2023-01-26T01:17:18;31.08;;;12.32;;
75698;SDS011;64313;51.018;13.742;2023-01-26T01:19:44;27.38;;;13.13;;
75698;SDS011;64313;51.018;13.742;2023-01-26T01:22:11;35.97;;;15.38;;
75698;SDS011;64313;51.018;13.742;2023-01-26T01:24:36;32.42;;;13.70;;
75698;SDS011;64313;51.018;13.742;2023-01-26T01:27:01;29.77;;;12.48;;
75698;SDS011;64313;51.018;13.742;2023-01-26T01:29:27;29.50;;;13.20;;
75698;SDS011;64313;51.018;13.742;2023-01-26T01:31:52;32.78;;;13.38;;
75698;SDS011;64313;51.018;13.742;2023-01-26T01:34:18;36.28;;;15.00;;
75698;SDS011;64313;51.018;13.742;2023-01-26T01:36:43;32.47;;;13.38;;
75698;SDS011;64313;51.018;13.742;2023-01-26T01:39:08;28.50;;;12.52;;
75698;SDS011;64313;51.018;13.742;2023-01-26T01:41:34;35.42;;;13.50;;
75698;SDS011;64313;51.018;13.742;2023-01-26T01:44:13;30.73;;;12.48;;
75698;SDS011;64313;51.018;13.742;2023-01-26T01:46:56;28.95;;;12.18;;
75698;SDS011;64313;51.018;13.742;2023-01-26T01:49:28;31.67;;;12.50;;
75698;SDS011;64313;51.018;13.742;2023-01-26T01:52:17;28.17;;;11.52;;
75698;SDS011;64313;51.018;13.742;2023-01-26T01:54:48;29.25;;;12.30;;
75698;SDS011;64313;51.018;13.742;2023-01-26T01:57:19;32.15;;;13.20;;
75698;SDS011;64313;51.018;13.742;2023-01-26T01:59:59;31.85;;;13.23;;
75698;SDS011;64313;51.018;13.742;2023-01-26T02:02:38;32.05;;;13.27;;
75698;SDS011;64313;51.018;13.742;2023-01-26T02:05:09;31.45;;;12.80;;
75698;SDS011;64313;51.018;13.742;2023-01-26T02:07:41;31.25;;;12.52;;
75698;SDS011;64313;51.018;13.742;2023-01-26T02:10:08;33.05;;;13.27;;
75698;SDS011;64313;51.018;13.742;2023-01-26T02:12:44;33.45;;;13.70;;
75698;SDS011;64313;51.018;13.742;2023-01-26T02:15:15;31.55;;;12.93;;
75698;SDS011;64313;51.018;13.742;2023-01-26T02:17:40;31.55;;;13.18;;
75698;SDS011;64313;51.018;13.742;2023-01-26T02:22:44;34.03;;;14.00;;
75698;SDS011;64313;51.018;13.742;2023-01-26T02:28:22;32.58;;;13.38;;
75698;SDS011;64313;51.018;13.742;2023-01-26T02:30:49;36.00;;;14.95;;
75698;SDS011;64313;51.018;13.742;2023-01-26T02:33:18;33.20;;;13.02;;
75698;SDS011;64313;51.018;13.742;2023-01-26T02:35:48;30.52;;;12.90;;
75698;SDS011;64313;51.018;13.742;2023-01-26T02:38:13;29.65;;;13.02;;
75698;SDS011;64313;51.018;13.742;2023-01-26T02:40:59;31.60;;;12.82;;
75698;SDS011;64313;51.018;13.742;2023-01-26T02:43:29;32.85;;;13.07;;
75698;SDS011;64313;51.018;13.742;2023-01-26T02:45:56;34.35;;;14.00;;
75698;SDS011;64313;51.018;13.742;2023-01-26T02:48:21;33.17;;;13.43;;
75698;SDS011;64313;51.018;13.742;2023-01-26T02:51:06;39.67;;;15.32;;
75698;SDS011;64313;51.018;13.742;2023-01-26T02:53:32;36.63;;;13.65;;
75698;SDS011;64313;51.018;13.742;2023-01-26T02:55:57;38.38;;;14.48;;
75698;SDS011;64313;51.018;13.742;2023-01-26T02:58:23;42.83;;;15.23;;
75698;SDS011;64313;51.018;13.742;2023-01-26T03:00:49;39.83;;;14.48;;
75698;SDS011;64313;51.018;13.742;2023-01-26T03:03:15;41.78;;;15.15;;
75698;SDS011;64313;51.018;13.742;2023-01-26T03:05:45;38.80;;;14.15;;
75698;SDS011;64313;51.018;13.742;2023-01-26T03:08:11;47.17;;;15.77;;
75698;SDS011;64313;51.018;13.742;2023-01-26T03:10:36;36.40;;;14.52;;
75698;SDS011;64313;51.018;13.742;2023-01-26T03:13:02;38.95;;;14.13;;
75698;SDS011;64313;51.018;13.742;2023-01-26T03:15:28;39.28;;;14.25;;
75698;SDS011;64313;51.018;13.742;2023-01-26T03:18:17;37.17;;;13.98;;
75698;SDS011;64313;51.018;13.742;2023-01-26T03:21:04;35.58;;;13.52;;
75698;SDS011;64313;51.018;13.742;2023-01-26T03:23:50;38.15;;;13.75;;
75698;SDS011;64313;51.018;13.742;2023-01-26T03:26:35;43.58;;;15.25;;
75698;SDS011;64313;51.018;13.742;2023-01-26T03:29:19;40.88;;;14.50;;
75698;SDS011;64313;51.018;13.742;2023-01-26T03:31:45;40.97;;;15.32;;
75698;SDS011;64313;51.018;13.742;2023-01-26T03:34:11;37.22;;;14.52;;
75698;SDS011;64313;51.018;13.742;2023-01-26T03:36:37;38.20;;;14.73;;
75698;SDS011;64313;51.018;13.742;2023-01-26T03:39:07;40.67;;;14.80;;
75698;SDS011;64313;51.018;13.742;2023-01-26T03:41:33;37.50;;;13.90;;
75698;SDS011;64313;51.018;13.742;2023-01-26T03:44:17;39.42;;;13.43;;
75698;SDS011;64313;51.018;13.742;2023-01-26T03:47:01;34.08;;;13.27;;
75698;SDS011;64313;51.018;13.742;2023-01-26T03:49:45;35.45;;;13.32;;
75698;SDS011;64313;51.018;13.742;2023-01-26T03:52:30;37.58;;;13.60;;
75698;SDS011;64313;51.018;13.742;2023-01-26T03:55:15;39.05;;;13.40;;
75698;SDS011;64313;51.018;13.742;2023-01-26T03:57:59;36.78;;;13.50;;
75698;SDS011;64313;51.018;13.742;2023-01-26T04:00:24;36.72;;;13.13;;
75698;SDS011;64313;51.018;13.742;2023-01-26T04:02:50;38.45;;;13.60;;
75698;SDS011;64313;51.018;13.742;2023-01-26T04:05:35;36.72;;;12.93;;
75698;SDS011;64313;51.018;13.742;2023-01-26T04:08:19;36.60;;;12.77;;
75698;SDS011;64313;51.018;13.742;2023-01-26T04:10:44;42.35;;;14.25;;
75698;SDS011;64313;51.018;13.742;2023-01-26T04:16:00;36.05;;;11.95;;
75698;SDS011;64313;51.018;13.742;2023-01-26T04:18:44;34.60;;;12.10;;
75698;SDS011;64313;51.018;13.742;2023-01-26T04:21:29;35.42;;;11.82;;
75698;SDS011;64313;51.018;13.742;2023-01-26T04:23:56;33.15;;;11.23;;
75698;SDS011;64313;51.018;13.742;2023-01-26T04:28:49;30.17;;;9.63;;
75698;SDS011;64313;51.018;13.742;2023-01-26T04:31:15;30.33;;;11.43;;
75698;SDS011;64313;51.018;13.742;2023-01-26T04:33:44;31.83;;;10.38;;
75698;SDS011;64313;51.018;13.742;2023-01-26T04:36:09;31.13;;;10.65;;
75698;SDS011;64313;51.018;13.742;2023-01-26T04:38:39;28.15;;;10.25;;
75698;SDS011;64313;51.018;13.742;2023-01-26T04:41:04;30.90;;;11.13;;
75698;SDS011;64313;51.018;13.742;2023-01-26T04:43:36;29.25;;;10.30;;
75698;SDS011;64313;51.018;13.742;2023-01-26T04:46:02;26.08;;;9.57;;
75698;SDS011;64313;51.018;13.742;2023-01-26T04:48:30;33.17;;;10.52;;
75698;SDS011;64313;51.018;13.742;2023-01-26T04:50:56;29.42;;;10.85;;
75698;SDS011;64313;51.018;13.742;2023-01-26T04:53:23;31.58;;;10.57;;
75698;SDS011;64313;51.018;13.742;2023-01-26T04:55:49;31.52;;;11.18;;
75698;SDS011;64313;51.018;13.742;2023-01-26T04:58:14;34.83;;;12.02;;
75698;SDS011;64313;51.018;13.742;2023-01-26T05:00:41;34.25;;;11.52;;
75698;SDS011;64313;51.018;13.742;2023-01-26T05:03:07;27.35;;;9.50;;
75698;SDS011;64313;51.018;13.742;2023-01-26T05:05:36;28.52;;;9.57;;
75698;SDS011;64313;51.018;13.742;2023-01-26T05:08:03;28.52;;;10.15;;
75698;SDS011;64313;51.018;13.742;2023-01-26T05:10:31;27.17;;;9.73;;
75698;SDS011;64313;51.018;13.742;2023-01-26T05:13:19;33.83;;;10.27;;
75698;SDS011;64313;51.018;13.742;2023-01-26T05:16:23;29.83;;;10.02;;
75698;SDS011;64313;51.018;13.742;2023-01-26T05:19:01;28.27;;;9.82;;
75698;SDS011;64313;51.018;13.742;2023-01-26T05:21:47;27.10;;;9.80;;
75698;SDS011;64313;51.018;13.742;2023-01-26T05:24:12;24.88;;;9.85;;
75698;SDS011;64313;51.018;13.742;2023-01-26T05:26:56;28.63;;;10.15;;
75698;SDS011;64313;51.018;13.742;2023-01-26T05:29:43;25.40;;;9.25;;
75698;SDS011;64313;51.018;13.742;2023-01-26T05:32:08;26.45;;;9.45;;
75698;SDS011;64313;51.018;13.742;2023-01-26T05:34:34;25.70;;;8.60;;
75698;SDS011;64313;51.018;13.742;2023-01-26T05:36:59;27.90;;;10.93;;
75698;SDS011;64313;51.018;13.742;2023-01-26T05:39:25;23.25;;;8.80;;
75698;SDS011;64313;51.018;13.742;2023-01-26T05:41:50;23.15;;;8.68;;
75698;SDS011;64313;51.018;13.742;2023-01-26T05:44:16;26.70;;;9.13;;
75698;SDS011;64313;51.018;13.742;2023-01-26T05:46:48;22.58;;;9.13;;
75698;SDS011;64313;51.018;13.742;2023-01-26T05:49:14;25.23;;;9.38;;
75698;SDS011;64313;51.018;13.742;2023-01-26T05:51:39;23.55;;;8.90;;
75698;SDS011;64313;51.018;13.742;2023-01-26T05:54:05;26.90;;;9.85;;
75698;SDS011;64313;51.018;13.742;2023-01-26T05:56:31;27.15;;;9.52;;
75698;SDS011;64313;51.018;13.742;2023-01-26T05:58:59;25.20;;;9.85;;
75698;SDS011;64313;51.018;13.742;2023-01-26T06:01:25;24.20;;;9.40;;
75698;SDS011;64313;51.018;13.742;2023-01-26T06:03:56;27.52;;;10.27;;
75698;SDS011;64313;51.018;13.742;2023-01-26T06:06:23;27.58;;;10.43;;
75698;SDS011;64313;51.018;13.742;2023-01-26T06:08:56;30.05;;;9.93;;
75698;SDS011;64313;51.018;13.742;2023-01-26T06:11:31;26.38;;;9.07;;
75698;SDS011;64313;51.018;13.742;2023-01-26T06:14:06;25.73;;;8.68;;
75698;SDS011;64313;51.018;13.742;2023-01-26T06:16:32;25.55;;;8.98;;
75698;SDS011;64313;51.018;13.742;2023-01-26T06:18:58;26.63;;;9.73;;
75698;SDS011;64313;51.018;13.742;2023-01-26T06:21:24;25.38;;;9.32;;
75698;SDS011;64313;51.018;13.742;2023-01-26T06:23:49;23.45;;;8.93;;
75698;SDS011;64313;51.018;13.742;2023-01-26T06:26:15;24.65;;;9.40;;
75698;SDS011;64313;51.018;13.742;2023-01-26T06:28:40;27.73;;;9.85;;
75698;SDS011;64313;51.018;13.742;2023-01-26T06:31:06;27.52;;;9.77;;
75698;SDS011;64313;51.018;13.742;2023-01-26T06:36:09;31.02;;;9.82;;
75698;SDS011;64313;51.018;13.742;2023-01-26T06:38:36;27.52;;;10.30;;
75698;SDS011;64313;51.018;13.742;2023-01-26T06:41:03;27.10;;;9.82;;
75698;SDS011;64313;51.018;13.742;2023-01-26T06:43:31;25.58;;;9.48;;
75698;SDS011;64313;51.018;13.742;2023-01-26T06:45:59;25.42;;;9.23;;
75698;SDS011;64313;51.018;13.742;2023-01-26T06:48:26;26.75;;;10.15;;
75698;SDS011;64313;51.018;13.742;2023-01-26T06:50:57;25.88;;;9.63;;
75698;SDS011;64313;51.018;13.742;2023-01-26T06:53:32;23.13;;;8.20;;
75698;SDS011;64313;51.018;13.742;2023-01-26T06:56:15;26.67;;;9.00;;
75698;SDS011;64313;51.018;13.742;2023-01-26T06:59:04;26.88;;;8.98;;
75698;SDS011;64313;51.018;13.742;2023-01-26T07:01:38;26.52;;;9.57;;
75698;SDS011;64313;51.018;13.742;2023-01-26T07:04:07;25.90;;;9.73;;
75698;SDS011;64313;51.018;13.742;2023-01-26T07:06:32;29.42;;;10.32;;
75698;SDS011;64313;51.018;13.742;2023-01-26T07:08:57;25.77;;;9.50;;
75698;SDS011;64313;51.018;13.742;2023-01-26T07:11:23;27.73;;;10.55;;
75698;SDS011;64313;51.018;13.742;2023-01-26T07:16:15;27.88;;;10.13;;
75698;SDS011;64313;51.018;13.742;2023-01-26T07:18:41;27.58;;;10.30;;
75698;SDS011;64313;51.018;13.742;2023-01-26T07:21:08;31.80;;;12.45;;
75698;SDS011;64313;51.018;13.742;2023-01-26T07:23:35;26.92;;;10.82;;
75698;SDS011;64313;51.018;13.742;2023-01-26T07:26:01;26.58;;;10.93;;
75698;SDS011;64313;51.018;13.742;2023-01-26T07:28:26;30.15;;;11.85;;
75698;SDS011;64313;51.018;13.742;2023-01-26T07:30:56;28.15;;;11.45;;
75698;SDS011;64313;51.018;13.742;2023-01-26T07:33:22;27.80;;;11.50;;
75698;SDS011;64313;51.018;13.742;2023-01-26T07:35:47;33.15;;;12.57;;
75698;SDS011;64313;51.018;13.742;2023-01-26T07:38:12;27.20;;;11.43;;
75698;SDS011;64313;51.018;13.742;2023-01-26T07:40:38;32.42;;;11.48;;
75698;SDS011;64313;51.018;13.742;2023-01-26T07:43:03;28.77;;;10.80;;
75698;SDS011;64313;51.018;13.742;2023-01-26T07:45:46;28.85;;;11.48;;
75698;SDS011;64313;51.018;13.742;2023-01-26T07:48:12;25.73;;;10.93;;
75698;SDS011;64313;51.018;13.742;2023-01-26T07:50:39;28.75;;;11.20;;
75698;SDS011;64313;51.018;13.742;2023-01-26T07:53:04;28.20;;;11.20;;
75698;SDS011;64313;51.018;13.742;2023-01-26T07:55:30;30.10;;;11.70;;
75698;SDS011;64313;51.018;13.742;2023-01-26T07:57:55;29.77;;;12.80;;
75698;SDS011;64313;51.018;13.742;2023-01-26T08:00:21;29.00;;;11.63;;
75698;SDS011;64313;51.018;13.742;2023-01-26T08:02:50;31.42;;;13.38;;
75698;SDS011;64313;51.018;13.742;2023-01-26T08:05:15;28.27;;;11.93;;
75698;SDS011;64313;51.018;13.742;2023-01-26T08:07:41;26.08;;;11.23;;
75698;SDS011;64313;51.018;13.742;2023-01-26T08:10:06;25.40;;;11.32;;
75698;SDS011;64313;51.018;13.742;2023-01-26T08:12:34;28.00;;;12.57;;
75698;SDS011;64313;51.018;13.742;2023-01-26T08:14:59;30.40;;;12.63;;
75698;SDS011;64313;51.018;13.742;2023-01-26T08:17:27;28.98;;;12.82;;
75698;SDS011;64313;51.018;13.742;2023-01-26T08:19:53;32.20;;;13.05;;
75698;SDS011;64313;51.018;13.742;2023-01-26T08:22:18;30.95;;;13.07;;
75698;SDS011;64313;51.018;13.742;2023-01-26T08:24:43;26.92;;;11.85;;
75698;SDS011;64313;51.018;13.742;2023-01-26T08:27:09;30.00;;;12.13;;
75698;SDS011;64313;51.018;13.742;2023-01-26T08:29:34;27.85;;;12.02;;
75698;SDS011;64313;51.018;13.742;2023-01-26T08:32:00;30.90;;;13.25;;
75698;SDS011;64313;51.018;13.742;2023-01-26T08:34:25;34.08;;;13.73;;
75698;SDS011;64313;51.018;13.742;2023-01-26T08:36:50;31.90;;;12.65;;
75698;SDS011;64313;51.018;13.742;2023-01-26T08:39:16;30.45;;;13.30;;
75698;SDS011;64313;51.018;13.742;2023-01-26T08:41:41;30.73;;;13.48;;
75698;SDS011;64313;51.018;13.742;2023-01-26T08:44:08;27.88;;;12.65;;
75698;SDS011;64313;51.018;13.742;2023-01-26T08:46:34;28.10;;;11.80;;
75698;SDS011;64313;51.018;13.742;2023-01-26T08:48:59;29.10;;;12.73;;
75698;SDS011;64313;51.018;13.742;2023-01-26T08:51:25;30.17;;;13.50;;
75698;SDS011;64313;51.018;13.742;2023-01-26T08:53:50;31.33;;;13.18;;
75698;SDS011;64313;51.018;13.742;2023-01-26T08:56:18;28.52;;;12.35;;
75698;SDS011;64313;51.018;13.742;2023-01-26T08:58:44;29.52;;;13.10;;
75698;SDS011;64313;51.018;13.742;2023-01-26T09:01:10;31.92;;;13.30;;
75698;SDS011;64313;51.018;13.742;2023-01-26T09:03:37;30.38;;;12.63;;
75698;SDS011;64313;51.018;13.742;2023-01-26T09:06:03;34.70;;;14.75;;
75698;SDS011;64313;51.018;13.742;2023-01-26T09:08:30;29.88;;;12.35;;
75698;SDS011;64313;51.018;13.742;2023-01-26T09:10:56;30.42;;;12.00;;
75698;SDS011;64313;51.018;13.742;2023-01-26T09:13:21;31.98;;;11.82;;
75698;SDS011;64313;51.018;13.742;2023-01-26T09:15:46;29.23;;;10.98;;
75698;SDS011;64313;51.018;13.742;2023-01-26T09:18:12;31.08;;;11.98;;
75698;SDS011;64313;51.018;13.742;2023-01-26T09:20:38;32.20;;;12.20;;
75698;SDS011;64313;51.018;13.742;2023-01-26T09:23:04;33.80;;;12.75;;
75698;SDS011;64313;51.018;13.742;2023-01-26T09:25:29;34.90;;;11.98;;
75698;SDS011;64313;51.018;13.742;2023-01-26T09:27:55;30.63;;;11.20;;
75698;SDS011;64313;51.018;13.742;2023-01-26T09:30:21;29.33;;;11.60;;
75698;SDS011;64313;51.018;13.742;2023-01-26T09:32:48;29.95;;;11.23;;
75698;SDS011;64313;51.018;13.742;2023-01-26T09:35:14;29.27;;;11.18;;
75698;SDS011;64313;51.018;13.742;2023-01-26T09:37:40;28.58;;;11.52;;
75698;SDS011;64313;51.018;13.742;2023-01-26T09:40:08;29.90;;;11.00;;
75698;SDS011;64313;51.018;13.742;2023-01-26T09:42:44;29.65;;;10.73;;
75698;SDS011;64313;51.018;13.742;2023-01-26T09:45:23;28.85;;;11.18;;
75698;SDS011;64313;51.018;13.742;2023-01-26T09:48:30;31.67;;;12.23;;
75698;SDS011;64313;51.018;13.742;2023-01-26T09:50:59;28.25;;;11.00;;
75698;SDS011;64313;51.018;13.742;2023-01-26T09:53:38;28.63;;;10.32;;
75698;SDS011;64313;51.018;13.742;2023-01-26T09:56:11;29.63;;;10.38;;
75698;SDS011;64313;51.018;13.742;2023-01-26T09:58:41;31.33;;;11.18;;
75698;SDS011;64313;51.018;13.742;2023-01-26T10:01:32;30.98;;;11.95;;
75698;SDS011;64313;51.018;13.742;2023-01-26T10:04:25;30.25;;;10.95;;
75698;SDS011;64313;51.018;13.742;2023-01-26T10:06:57;29.25;;;10.25;;
75698;SDS011;64313;51.018;13.742;2023-01-26T10:09:45;28.35;;;10.93;;
75698;SDS011;64313;51.018;13.742;2023-01-26T10:12:15;32.83;;;11.20;;
75698;SDS011;64313;51.018;13.742;2023-01-26T10:14:47;29.95;;;11.43;;
75698;SDS011;64313;51.018;13.742;2023-01-26T10:17:17;33.90;;;11.90;;
75698;SDS011;64313;51.018;13.742;2023-01-26T10:19:49;30.33;;;11.15;;
75698;SDS011;64313;51.018;13.742;2023-01-26T10:22:25;28.40;;;12.05;;
75698;SDS011;64313;51.018;13.742;2023-01-26T10:24:58;27.63;;;10.60;;
75698;SDS011;64313;51.018;13.742;2023-01-26T10:27:25;31.48;;;13.05;;
75698;SDS011;64313;51.018;13.742;2023-01-26T10:29:52;28.67;;;11.10;;
75698;SDS011;64313;51.018;13.742;2023-01-26T10:32:18;28.88;;;11.05;;
75698;SDS011;64313;51.018;13.742;2023-01-26T10:34:47;32.05;;;11.68;;
75698;SDS011;64313;51.018;13.742;2023-01-26T10:37:17;26.48;;;10.77;;
75698;SDS011;64313;51.018;13.742;2023-01-26T10:39:58;27.83;;;10.70;;
75698;SDS011;64313;51.018;13.742;2023-01-26T10:42:34;27.13;;;10.98;;
75698;SDS011;64313;51.018;13.742;2023-01-26T10:45:05;29.30;;;11.32;;
75698;SDS011;64313;51.018;13.742;2023-01-26T10:50:32;26.88;;;10.95;;
75698;SDS011;64313;51.018;13.742;2023-01-26T10:52:58;27.10;;;10.68;;
75698;SDS011;64313;51.018;13.742;2023-01-26T10:55:25;28.67;;;11.23;;
75698;SDS011;64313;51.018;13.742;2023-01-26T10:57:52;25.75;;;10.68;;
75698;SDS011;64313;51.018;13.742;2023-01-26T11:05:14;32.15;;;11.82;;
75698;SDS011;64313;51.018;13.742;2023-01-26T11:07:45;27.27;;;10.75;;
75698;SDS011;64313;51.018;13.742;2023-01-26T11:15:38;30.73;;;11.75;;
75698;SDS011;64313;51.018;13.742;2023-01-26T11:21:09;32.35;;;12.02;;
75698;SDS011;64313;51.018;13.742;2023-01-26T11:23:45;27.05;;;10.68;;
75698;SDS011;64313;51.018;13.742;2023-01-26T11:26:36;33.30;;;11.73;;
75698;SDS011;64313;51.018;13.742;2023-01-26T11:32:15;27.20;;;10.52;;
75698;SDS011;64313;51.018;13.742;2023-01-26T11:37:48;31.33;;;11.30;;
75698;SDS011;64313;51.018;13.742;2023-01-26T11:48:58;30.60;;;11.07;;
75698;SDS011;64313;51.018;13.742;2023-01-26T11:51:58;29.38;;;11.15;;
75698;SDS011;64313;51.018;13.742;2023-01-26T12:00:18;32.80;;;11.90;;
75698;SDS011;64313;51.018;13.742;2023-01-26T12:02:52;26.73;;;10.77;;
75698;SDS011;64313;51.018;13.742;2023-01-26T12:05:24;27.83;;;11.82;;
75698;SDS011;64313;51.018;13.742;2023-01-26T12:10:24;30.38;;;12.52;;
75698;SDS011;64313;51.018;13.742;2023-01-26T12:13:04;24.95;;;10.57;;
75698;SDS011;64313;51.018;13.742;2023-01-26T12:15:38;26.45;;;9.95;;
75698;SDS011;64313;51.018;13.742;2023-01-26T12:18:13;24.30;;;9.93;;
75698;SDS011;64313;51.018;13.742;2023-01-26T12:23:26;28.90;;;10.55;;
75698;SDS011;64313;51.018;13.742;2023-01-26T12:25:59;24.92;;;9.52;;
75698;SDS011;64313;51.018;13.742;2023-01-26T12:28:52;26.95;;;10.82;;
75698;SDS011;64313;51.018;13.742;2023-01-26T12:31:29;25.50;;;9.57;;
75698;SDS011;64313;51.018;13.742;2023-01-26T12:34:00;24.55;;;9.80;;
75698;SDS011;64313;51.018;13.742;2023-01-26T12:36:30;28.10;;;10.60;;
75698;SDS011;64313;51.018;13.742;2023-01-26T12:44:47;24.52;;;9.38;;
75698;SDS011;64313;51.018;13.742;2023-01-26T12:47:21;24.33;;;9.77;;
75698;SDS011;64313;51.018;13.742;2023-01-26T12:50:00;21.25;;;8.90;;
75698;SDS011;64313;51.018;13.742;2023-01-26T12:52:37;25.75;;;9.43;;
75698;SDS011;64313;51.018;13.742;2023-01-26T12:55:29;23.60;;;9.25;;
75698;SDS011;64313;51.018;13.742;2023-01-26T12:58:08;28.23;;;10.02;;
75698;SDS011;64313;51.018;13.742;2023-01-26T13:00:38;22.48;;;9.15;;
75698;SDS011;64313;51.018;13.742;2023-01-26T13:10:55;20.90;;;8.38;;
75698;SDS011;64313;51.018;13.742;2023-01-26T13:13:26;24.13;;;9.40;;
75698;SDS011;64313;51.018;13.742;2023-01-26T13:18:58;21.33;;;9.18;;
75698;SDS011;64313;51.018;13.742;2023-01-26T13:21:40;26.25;;;9.73;;
75698;SDS011;64313;51.018;13.742;2023-01-26T13:26:43;24.92;;;9.10;;
75698;SDS011;64313;51.018;13.742;2023-01-26T13:29:29;22.95;;;9.05;;
75698;SDS011;64313;51.018;13.742;2023-01-26T13:31:58;20.38;;;8.50;;
75698;SDS011;64313;51.018;13.742;2023-01-26T13:34:37;20.35;;;8.55;;
75698;SDS011;64313;51.018;13.742;2023-01-26T13:37:16;21.70;;;8.02;;
75698;SDS011;64313;51.018;13.742;2023-01-26T13:39:50;20.50;;;7.60;;
75698;SDS011;64313;51.018;13.742;2023-01-26T13:42:19;20.45;;;7.85;;
75698;SDS011;64313;51.018;13.742;2023-01-26T13:44:50;17.23;;;6.72;;
75698;SDS011;64313;51.018;13.742;2023-01-26T13:49:50;19.08;;;7.22;;
75698;SDS011;64313;51.018;13.742;2023-01-26T13:52:23;16.52;;;7.03;;
75698;SDS011;64313;51.018;13.742;2023-01-26T13:54:51;20.58;;;7.50;;
75698;SDS011;64313;51.018;13.742;2023-01-26T13:57:24;17.02;;;7.40;;
75698;SDS011;64313;51.018;13.742;2023-01-26T13:59:52;17.25;;;7.78;;
75698;SDS011;64313;51.018;13.742;2023-01-26T14:02:39;20.17;;;7.43;;
75698;SDS011;64313;51.018;13.742;2023-01-26T14:05:04;18.75;;;8.30;;
75698;SDS011;64313;51.018;13.742;2023-01-26T14:07:31;20.25;;;8.00;;
75698;SDS011;64313;51.018;13.742;2023-01-26T14:10:00;17.85;;;7.45;;
75698;SDS011;64313;51.018;13.742;2023-01-26T14:12:27;22.85;;;8.23;;
75698;SDS011;64313;51.018;13.742;2023-01-26T14:14:56;18.63;;;7.05;;
75698;SDS011;64313;51.018;13.742;2023-01-26T14:17:30;18.30;;;7.45;;
75698;SDS011;64313;51.018;13.742;2023-01-26T14:19:58;16.02;;;6.55;;
75698;SDS011;64313;51.018;13.742;2023-01-26T14:22:24;16.95;;;7.20;;
75698;SDS011;64313;51.018;13.742;2023-01-26T14:24:51;17.65;;;7.60;;
75698;SDS011;64313;51.018;13.742;2023-01-26T14:27:26;17.65;;;7.55;;
75698;SDS011;64313;51.018;13.742;2023-01-26T14:29:54;17.70;;;7.47;;
75698;SDS011;64313;51.018;13.742;2023-01-26T14:32:20;18.88;;;8.00;;
75698;SDS011;64313;51.018;13.742;2023-01-26T14:34:52;16.85;;;7.00;;
75698;SDS011;64313;51.018;13.742;2023-01-26T14:37:19;15.43;;;6.50;;
75698;SDS011;64313;51.018;13.742;2023-01-26T14:39:45;18.65;;;7.65;;
75698;SDS011;64313;51.018;13.742;2023-01-26T14:42:15;18.65;;;8.02;;
75698;SDS011;64313;51.018;13.742;2023-01-26T14:44:42;19.13;;;7.40;;
75698;SDS011;64313;51.018;13.742;2023-01-26T14:47:16;14.48;;;6.32;;
75698;SDS011;64313;51.018;13.742;2023-01-26T14:49:50;16.35;;;7.10;;
75698;SDS011;64313;51.018;13.742;2023-01-26T14:52:29;15.40;;;7.15;;
75698;SDS011;64313;51.018;13.742;2023-01-26T14:55:02;15.98;;;7.18;;
75698;SDS011;64313;51.018;13.742;2023-01-26T14:57:32;16.40;;;6.88;;
75698;SDS011;64313;51.018;13.742;2023-01-26T14:59:59;19.10;;;7.90;;
75698;SDS011;64313;51.018;13.742;2023-01-26T15:02:33;16.98;;;7.68;;
75698;SDS011;64313;51.018;13.742;2023-01-26T15:05:13;15.20;;;6.55;;
75698;SDS011;64313;51.018;13.742;2023-01-26T15:07:54;15.93;;;8.18;;
75698;SDS011;64313;51.018;13.742;2023-01-26T15:13:17;15.68;;;7.15;;
75698;SDS011;64313;51.018;13.742;2023-01-26T15:15:41;19.60;;;8.10;;
75698;SDS011;64313;51.018;13.742;2023-01-26T15:20:38;14.83;;;6.57;;
75698;SDS011;64313;51.018;13.742;2023-01-26T15:23:39;18.23;;;7.68;;
75698;SDS011;64313;51.018;13.742;2023-01-26T15:26:05;19.88;;;8.80;;
75698;SDS011;64313;51.018;13.742;2023-01-26T15:28:33;16.15;;;7.50;;
75698;SDS011;64313;51.018;13.742;2023-01-26T15:30:58;20.65;;;8.98;;
75698;SDS011;64313;51.018;13.742;2023-01-26T15:33:47;17.77;;;8.25;;
75698;SDS011;64313;51.018;13.742;2023-01-26T15:38:48;13.68;;;6.85;;
75698;SDS011;64313;51.018;13.742;2023-01-26T15:41:14;17.63;;;8.25;;
75698;SDS011;64313;51.018;13.742;2023-01-26T15:43:39;16.63;;;8.07;;
75698;SDS011;64313;51.018;13.742;2023-01-26T15:46:05;16.23;;;7.70;;
75698;SDS011;64313;51.018;13.742;2023-01-26T15:48:34;18.25;;;7.68;;
75698;SDS011;64313;51.018;13.742;2023-01-26T15:50:59;16.40;;;7.53;;
75698;SDS011;64313;51.018;13.742;2023-01-26T15:53:24;18.65;;;8.05;;
75698;SDS011;64313;51.018;13.742;2023-01-26T15:55:50;16.33;;;7.60;;
75698;SDS011;64313;51.018;13.742;2023-01-26T15:58:20;15.23;;;6.88;;
75698;SDS011;64313;51.018;13.742;2023-01-26T16:00:49;15.88;;;6.85;;
75698;SDS011;64313;51.018;13.742;2023-01-26T16:03:17;16.80;;;7.40;;
75698;SDS011;64313;51.018;13.742;2023-01-26T16:05:44;13.43;;;6.57;;